Time;durP1;ratioP1;P1;durP2;ratioP2;P2;SDS_P1;SDS_P2;PMS_P1;PMS_P2;Temp;Humidity;BMP_temperature;BMP_pressure;BME280_temperature;BME280_humidity;BME280_pressure;Samples;Min_cycle;Max_cycle;Signal;HPM_P1;HPM_P2
2023/01/14 00:01:03;;;;;;;7.63;2.90;;;5.40;99.90;;;;;;5004755;28;20217;-31
2023/01/14 00:03:31;;;;;;;6.57;2.80;;;5.30;99.90;;;;;;4994902;28;20184;-31
2023/01/14 00:05:58;;;;;;;7.33;2.00;;;5.30;99.90;;;;;;5012073;28;20188;-31
2023/01/14 00:08:25;;;;;;;7.20;1.73;;;5.30;99.90;;;;;;5013195;28;20196;-32
2023/01/14 00:10:51;;;;;;;3.87;1.47;;;5.30;99.90;;;;;;5011220;28;20197;-32
2023/01/14 00:13:16;;;;;;;6.30;1.60;;;5.20;99.90;;;;;;4995346;28;20185;-31
2023/01/14 00:15:54;;;;;;;7.70;1.80;;;5.20;99.90;;;;;;5011815;28;20202;-31
2023/01/14 00:18:20;;;;;;;4.83;1.83;;;5.20;99.90;;;;;;4994341;28;20557;-31
2023/01/14 00:21:09;;;;;;;6.20;1.67;;;5.10;99.90;;;;;;5011129;28;20640;-31
2023/01/14 00:23:35;;;;;;;6.40;1.80;;;5.10;99.90;;;;;;4995239;28;20225;-31
2023/01/14 00:26:12;;;;;;;5.53;1.70;;;5.20;99.90;;;;;;5011626;28;20184;-31
2023/01/14 00:28:38;;;;;;;5.90;1.90;;;5.20;99.90;;;;;;5012375;28;20189;-30
2023/01/14 00:31:15;;;;;;;4.70;1.73;;;5.20;99.90;;;;;;5002469;28;20279;-31
2023/01/14 00:33:42;;;;;;;9.37;1.70;;;5.20;99.90;;;;;;4994687;28;20197;-31
2023/01/14 00:36:10;;;;;;;3.47;1.40;;;5.20;99.90;;;;;;4994927;28;20217;-31
2023/01/14 00:38:37;;;;;;;5.00;1.67;;;5.30;99.90;;;;;;4994711;28;20183;-30
2023/01/14 00:41:07;;;;;;;5.73;1.60;;;5.30;99.90;;;;;;4994664;28;20267;-32
2023/01/14 00:43:39;;;;;;;5.00;1.77;;;5.30;99.90;;;;;;4994188;28;20255;-30
2023/01/14 00:46:06;;;;;;;4.00;1.73;;;5.40;99.90;;;;;;5012245;28;20189;-30
2023/01/14 00:48:33;;;;;;;6.57;1.67;;;5.40;99.90;;;;;;5012304;28;20185;-30
2023/01/14 00:50:59;;;;;;;6.20;1.57;;;5.40;99.90;;;;;;4994521;28;20252;-29
2023/01/14 00:53:26;;;;;;;4.83;1.83;;;5.40;99.90;;;;;;5010701;28;20189;-32
2023/01/14 00:55:53;;;;;;;6.97;1.93;;;5.40;99.90;;;;;;5010833;28;20209;-30
2023/01/14 00:58:19;;;;;;;8.10;1.93;;;5.40;99.90;;;;;;4993922;28;20212;-30
2023/01/14 01:00:47;;;;;;;5.90;1.70;;;5.40;99.90;;;;;;4998913;28;20189;-31
2023/01/14 01:03:14;;;;;;;8.23;1.50;;;5.40;99.90;;;;;;5008333;28;20190;-31
2023/01/14 01:05:40;;;;;;;8.50;2.57;;;5.40;99.90;;;;;;4994605;28;20186;-31
2023/01/14 01:08:09;;;;;;;4.53;2.00;;;5.40;99.90;;;;;;4994079;28;20662;-31
2023/01/14 01:10:35;;;;;;;4.10;1.60;;;5.40;99.90;;;;;;5011503;28;20193;-32
2023/01/14 01:13:04;;;;;;;3.03;1.57;;;5.40;99.90;;;;;;4994031;28;20202;-31
2023/01/14 01:15:34;;;;;;;5.33;1.53;;;5.40;99.90;;;;;;4993609;28;20230;-32
2023/01/14 01:18:01;;;;;;;4.97;1.50;;;5.30;99.90;;;;;;4994005;28;20177;-32
2023/01/14 01:20:27;;;;;;;2.37;1.03;;;5.30;99.90;;;;;;4993881;28;20258;-31
2023/01/14 01:22:53;;;;;;;5.27;1.30;;;5.30;99.90;;;;;;5009617;28;20273;-32
2023/01/14 01:25:18;;;;;;;4.37;1.33;;;5.20;99.90;;;;;;4993207;28;20205;-31
2023/01/14 01:27:45;;;;;;;4.03;1.30;;;5.20;99.90;;;;;;4994647;28;20192;-31
2023/01/14 01:30:11;;;;;;;5.27;1.27;;;5.30;99.90;;;;;;5003484;28;20181;-31
2023/01/14 01:32:37;;;;;;;3.43;1.33;;;5.30;99.90;;;;;;5005681;28;20189;-31
2023/01/14 01:35:03;;;;;;;3.30;1.30;;;5.30;99.90;;;;;;4996052;28;20214;-31
2023/01/14 01:37:29;;;;;;;3.50;1.07;;;5.20;99.90;;;;;;4993975;28;20213;-32
2023/01/14 01:39:55;;;;;;;6.47;1.40;;;5.20;99.90;;;;;;4993164;28;20184;-31
2023/01/14 01:42:23;;;;;;;3.37;1.13;;;5.20;99.90;;;;;;4977904;28;20747;-31
2023/01/14 01:44:49;;;;;;;3.30;1.40;;;5.20;99.90;;;;;;4993502;28;20279;-31
2023/01/14 01:47:17;;;;;;;3.27;1.50;;;5.20;99.90;;;;;;5011236;28;20274;-31
2023/01/14 01:49:44;;;;;;;5.53;1.70;;;5.20;99.90;;;;;;5009824;28;20223;-32
2023/01/14 01:52:23;;;;;;;5.90;1.40;;;5.20;99.90;;;;;;4993779;28;20185;-31
2023/01/14 01:54:53;;;;;;;3.90;1.57;;;5.10;99.90;;;;;;4993470;28;20268;-31
2023/01/14 01:57:19;;;;;;;4.03;1.40;;;5.10;99.90;;;;;;5010310;28;20184;-31
2023/01/14 01:59:51;;;;;;;3.67;1.40;;;5.10;99.90;;;;;;4989235;28;20182;-32
2023/01/14 02:02:17;;;;;;;5.63;1.70;;;5.00;99.90;;;;;;5005962;28;20184;-31
2023/01/14 02:04:43;;;;;;;4.63;1.50;;;5.00;99.90;;;;;;5009095;28;20215;-31
2023/01/14 02:07:20;;;;;;;11.23;1.67;;;5.00;99.90;;;;;;4993323;28;20195;-31
2023/01/14 02:09:49;;;;;;;5.50;1.50;;;5.00;99.90;;;;;;4977075;28;20184;-31
2023/01/14 02:12:38;;;;;;;4.43;1.30;;;5.00;99.90;;;;;;4993253;28;20189;-31
2023/01/14 02:15:19;;;;;;;4.40;1.40;;;4.90;99.90;;;;;;4998732;28;20214;-31
2023/01/14 02:18:22;;;;;;;2.90;1.30;;;5.00;99.90;;;;;;5009875;28;20175;-32
2023/01/14 02:21:12;;;;;;;1.90;1.17;;;5.00;99.90;;;;;;5009052;28;20183;-32
2023/01/14 02:23:57;;;;;;;5.37;1.53;;;4.90;99.90;;;;;;5009558;28;20203;-32
2023/01/14 02:26:38;;;;;;;3.03;1.30;;;4.90;99.90;;;;;;4993245;28;20184;-32
2023/01/14 02:29:17;;;;;;;6.03;1.40;;;4.90;99.90;;;;;;4994178;28;20290;-31
2023/01/14 02:31:47;;;;;;;4.13;1.23;;;5.00;99.90;;;;;;5000929;28;20218;-31
2023/01/14 02:34:31;;;;;;;3.97;1.30;;;4.90;99.90;;;;;;4993197;28;20203;-32
2023/01/14 02:37:16;;;;;;;5.77;1.30;;;4.90;99.90;;;;;;5009601;28;20181;-31
2023/01/14 02:39:45;;;;;;;5.57;1.03;;;5.00;99.90;;;;;;4992948;28;20185;-31
2023/01/14 02:45:15;;;;;;;4.70;1.70;;;4.90;99.90;;;;;;5010243;28;20232;-32
2023/01/14 02:47:42;;;;;;;3.40;1.10;;;4.90;99.90;;;;;;4993134;28;20667;-31
2023/01/14 02:50:12;;;;;;;5.10;1.17;;;4.90;99.90;;;;;;5012892;28;20692;-31
2023/01/14 02:52:38;;;;;;;4.80;1.37;;;4.80;99.90;;;;;;4996806;28;20284;-31
2023/01/14 02:55:29;;;;;;;5.00;1.20;;;4.80;99.90;;;;;;5013851;28;20391;-32
2023/01/14 02:58:01;;;;;;;5.57;1.60;;;4.80;99.90;;;;;;4996696;28;20280;-32
2023/01/14 03:00:38;;;;;;;3.10;1.20;;;4.80;99.90;;;;;;5004215;28;20249;-31
2023/01/14 03:03:18;;;;;;;4.07;1.13;;;4.80;99.90;;;;;;5012728;28;20205;-32
2023/01/14 03:06:12;;;;;;;3.73;1.37;;;4.80;99.90;;;;;;5012571;28;20217;-31
2023/01/14 03:09:00;;;;;;;4.73;1.70;;;4.70;99.90;;;;;;4972000;28;20196;-31
2023/01/14 03:11:42;;;;;;;4.87;1.40;;;4.70;99.90;;;;;;4995736;28;20192;-31
2023/01/14 03:14:20;;;;;;;3.83;1.47;;;4.60;99.90;;;;;;5001505;28;20260;-31
2023/01/14 03:16:58;;;;;;;5.00;1.47;;;4.60;99.90;;;;;;5012283;28;20228;-31
2023/01/14 03:20:00;;;;;;;3.50;1.37;;;4.60;99.90;;;;;;4996355;28;20177;-31
2023/01/14 03:22:29;;;;;;;3.80;1.30;;;4.60;99.90;;;;;;4995883;28;20175;-32
2023/01/14 03:24:58;;;;;;;3.17;1.03;;;4.50;99.90;;;;;;4995568;28;20201;-32
2023/01/14 03:27:32;;;;;;;6.07;1.43;;;4.50;99.90;;;;;;4996243;28;20692;-29
2023/01/14 03:30:05;;;;;;;3.60;1.00;;;4.50;99.90;;;;;;5006955;28;20185;-29
2023/01/14 03:32:43;;;;;;;3.03;1.13;;;4.40;99.90;;;;;;4993972;28;20265;-30
2023/01/14 03:35:15;;;;;;;2.50;0.83;;;4.40;99.90;;;;;;5011952;28;20222;-30
2023/01/14 03:37:51;;;;;;;4.17;1.30;;;4.40;99.90;;;;;;4995688;28;20179;-30
2023/01/14 03:40:18;;;;;;;2.00;1.07;;;4.30;99.90;;;;;;5013699;28;20240;-30
2023/01/14 03:42:53;;;;;;;3.30;1.40;;;4.30;99.90;;;;;;4995839;28;20525;-31
2023/01/14 03:45:33;;;;;;;4.27;1.37;;;4.30;99.90;;;;;;5012024;28;20223;-29
2023/01/14 03:47:59;;;;;;;3.13;1.70;;;4.30;99.90;;;;;;4995304;28;20199;-29
2023/01/14 03:50:32;;;;;;;3.83;1.63;;;4.30;99.90;;;;;;5011785;28;20287;-30
2023/01/14 03:53:15;;;;;;;2.93;1.40;;;4.20;99.90;;;;;;5013051;28;20246;-31
2023/01/14 03:55:45;;;;;;;5.37;1.60;;;4.20;99.90;;;;;;4995121;28;20210;-30
2023/01/14 03:58:11;;;;;;;5.63;1.50;;;4.20;99.90;;;;;;5011589;28;20641;-30
2023/01/14 04:00:47;;;;;;;5.50;1.07;;;4.20;99.90;;;;;;4985757;28;20172;-30
2023/01/14 04:03:14;;;;;;;6.93;1.43;;;4.20;99.90;;;;;;4995317;28;20183;-29
2023/01/14 04:05:41;;;;;;;2.13;1.20;;;4.20;99.90;;;;;;4995466;28;20583;-29
2023/01/14 04:08:07;;;;;;;1.97;0.80;;;4.10;99.90;;;;;;5011085;28;20183;-30
2023/01/14 04:10:33;;;;;;;3.97;1.13;;;4.10;99.90;;;;;;5011246;28;20187;-30
2023/01/14 04:15:44;;;;;;;3.37;1.00;;;4.10;99.90;;;;;;5012675;28;20207;-29
2023/01/14 04:18:09;;;;;;;3.90;1.00;;;4.10;99.90;;;;;;5012703;28;20180;-29
2023/01/14 04:20:35;;;;;;;2.27;1.03;;;4.10;99.90;;;;;;4994956;28;20182;-29
2023/01/14 04:23:01;;;;;;;2.60;1.10;;;4.10;99.90;;;;;;5012603;28;20184;-29
2023/01/14 04:25:27;;;;;;;4.30;1.20;;;4.10;99.90;;;;;;4994876;28;20229;-29
2023/01/14 04:27:53;;;;;;;4.47;0.90;;;4.10;99.90;;;;;;4979332;28;20245;-29
2023/01/14 04:30:18;;;;;;;1.93;1.07;;;4.10;99.90;;;;;;4985479;28;20664;-30
2023/01/14 04:32:45;;;;;;;4.37;1.30;;;4.00;99.90;;;;;;5013106;28;20663;-31
2023/01/14 04:35:11;;;;;;;4.60;1.17;;;4.00;99.90;;;;;;5010628;28;20211;-30
2023/01/14 04:37:36;;;;;;;3.83;1.00;;;4.00;99.90;;;;;;4994778;28;20190;-28
2023/01/14 04:40:03;;;;;;;1.83;0.83;;;3.90;99.90;;;;;;4994415;28;20171;-28
2023/01/14 04:42:30;;;;;;;3.70;1.27;;;3.90;99.90;;;;;;5011221;28;20265;-31
2023/01/14 04:45:01;;;;;;;3.60;0.83;;;3.80;99.90;;;;;;5009575;28;20237;-29
2023/01/14 04:47:28;;;;;;;4.70;1.00;;;3.80;99.90;;;;;;5012223;28;20183;-30
2023/01/14 04:49:54;;;;;;;4.43;0.90;;;3.80;99.90;;;;;;5010810;28;20171;-30
2023/01/14 04:52:20;;;;;;;3.13;1.00;;;3.80;99.90;;;;;;5011213;28;20187;-30
2023/01/14 04:54:46;;;;;;;1.77;1.10;;;3.80;99.90;;;;;;5010213;28;20218;-29
2023/01/14 04:57:12;;;;;;;2.30;0.80;;;3.80;99.90;;;;;;4994500;28;20183;-31
2023/01/14 04:59:38;;;;;;;4.40;1.00;;;3.90;99.90;;;;;;5007197;28;20191;-30
2023/01/14 05:02:04;;;;;;;4.90;1.07;;;3.90;99.90;;;;;;4988939;28;20179;-30
2023/01/14 05:04:30;;;;;;;2.63;1.10;;;3.90;99.90;;;;;;5010306;28;20227;-30
2023/01/14 05:06:57;;;;;;;2.27;1.00;;;3.90;99.90;;;;;;5011036;28;20179;-30
2023/01/14 05:09:23;;;;;;;2.47;1.13;;;4.00;99.90;;;;;;4993679;28;20177;-31
2023/01/14 05:11:49;;;;;;;4.20;1.50;;;4.00;99.90;;;;;;4993944;28;20179;-31
2023/01/14 05:14:15;;;;;;;3.13;1.07;;;4.00;99.90;;;;;;5011687;28;20203;-30
2023/01/14 05:16:40;;;;;;;3.47;1.10;;;4.00;99.90;;;;;;5010203;28;20183;-30
2023/01/14 05:19:06;;;;;;;4.27;1.10;;;4.00;99.90;;;;;;4993836;28;20179;-31
2023/01/14 05:21:32;;;;;;;7.23;1.30;;;4.00;99.90;;;;;;4994038;28;20179;-30
2023/01/14 05:23:57;;;;;;;3.17;0.87;;;4.00;99.90;;;;;;5010050;28;20245;-31
2023/01/14 05:26:23;;;;;;;1.67;0.90;;;4.00;99.90;;;;;;4994284;28;20238;-29
2023/01/14 05:28:49;;;;;;;3.97;1.03;;;4.00;99.90;;;;;;5029556;22;20246;-85
2023/01/14 05:31:15;;;;;;;2.57;0.90;;;4.00;99.90;;;;;;5011220;28;20260;-85
2023/01/14 05:33:41;;;;;;;2.40;0.90;;;4.00;99.90;;;;;;5023105;28;20271;-85
2023/01/14 05:36:07;;;;;;;5.10;1.10;;;4.00;99.90;;;;;;5027739;28;20294;-85
2023/01/14 05:38:33;;;;;;;3.93;1.10;;;3.90;99.90;;;;;;5011033;28;20217;-86
2023/01/14 05:40:59;;;;;;;3.83;1.20;;;3.90;99.90;;;;;;5011205;28;20207;-85
2023/01/14 05:46:17;;;;;;;6.53;1.40;;;3.90;99.90;;;;;;4988283;28;20192;-85
2023/01/14 05:48:44;;;;;;;4.43;1.30;;;4.00;99.90;;;;;;5010872;28;20180;-85
2023/01/14 05:51:12;;;;;;;4.70;1.27;;;4.00;99.90;;;;;;5027631;28;20181;-85
2023/01/14 05:53:39;;;;;;;6.80;1.80;;;4.00;99.90;;;;;;5010763;28;20191;-86
2023/01/14 05:56:05;;;;;;;6.50;2.20;;;4.00;99.90;;;;;;5012151;28;20207;-85
2023/01/14 05:58:31;;;;;;;5.63;1.70;;;4.00;99.90;;;;;;5009285;28;20271;-84
2023/01/14 06:06:48;;;;;;;6.00;2.20;;;4.00;99.90;;;;;;5027797;28;20218;-86
2023/01/14 06:09:15;;;;;;;6.33;1.53;;;4.00;99.90;;;;;;5011219;28;20175;-86
2023/01/14 06:12:01;;;;;;;3.87;1.50;;;3.90;99.90;;;;;;5011599;28;20184;-85
2023/01/14 06:14:29;;;;;;;4.33;1.57;;;3.90;99.90;;;;;;5010519;28;20176;-86
2023/01/14 06:17:05;;;;;;;3.67;1.43;;;3.90;99.90;;;;;;5010896;28;20191;-86
2023/01/14 06:19:38;;;;;;;8.43;1.80;;;3.90;99.90;;;;;;5010267;28;20202;-85
2023/01/14 06:22:06;;;;;;;3.53;1.60;;;3.80;99.90;;;;;;5024759;28;20187;-85
2023/01/14 06:24:32;;;;;;;2.73;1.17;;;3.90;99.90;;;;;;5002626;28;20191;-86
2023/01/14 06:27:05;;;;;;;4.10;1.40;;;3.90;99.90;;;;;;5014662;28;20178;-86
2023/01/14 06:29:31;;;;;;;5.33;1.93;;;3.90;99.90;;;;;;5013600;28;20746;-85
2023/01/14 06:31:57;;;;;;;4.67;1.90;;;3.90;99.90;;;;;;5030745;28;20255;-85
2023/01/14 06:34:23;;;;;;;6.17;1.63;;;3.90;99.90;;;;;;5014233;28;20178;-86
2023/01/14 06:36:49;;;;;;;3.97;1.70;;;3.90;99.90;;;;;;5014420;28;20266;-86
2023/01/14 06:39:16;;;;;;;5.50;1.67;;;3.90;99.90;;;;;;4997811;28;20278;-86
2023/01/14 06:41:42;;;;;;;3.20;1.87;;;3.90;99.90;;;;;;5014343;28;20211;-85
2023/01/14 06:44:08;;;;;;;4.57;1.50;;;3.90;99.90;;;;;;5013928;28;20234;-86
2023/01/14 06:46:35;;;;;;;3.47;1.90;;;4.00;99.90;;;;;;5014101;28;20266;-86
2023/01/14 06:49:01;;;;;;;4.57;2.13;;;4.00;99.90;;;;;;5024805;28;20600;-86
2023/01/14 06:51:30;;;;;;;4.70;2.37;;;4.00;99.90;;;;;;5011435;28;20640;-86
2023/01/14 06:53:56;;;;;;;5.37;2.50;;;4.00;99.90;;;;;;4995911;28;20215;-86
2023/01/14 06:56:22;;;;;;;7.87;2.70;;;4.00;99.90;;;;;;4996716;28;20212;-86
2023/01/14 06:58:49;;;;;;;5.60;2.70;;;4.10;99.90;;;;;;5014274;28;20176;-86
2023/01/14 07:01:15;;;;;;;5.57;2.57;;;4.10;99.90;;;;;;5030978;28;20219;-86
2023/01/14 07:03:41;;;;;;;9.90;5.33;;;4.10;99.90;;;;;;5014042;28;20195;-86
2023/01/14 07:06:08;;;;;;;11.63;6.73;;;4.20;99.90;;;;;;5030610;28;20183;-86
2023/01/14 07:08:34;;;;;;;9.97;4.80;;;4.20;99.90;;;;;;5030568;28;20278;-86
2023/01/14 07:11:00;;;;;;;8.87;3.50;;;4.20;99.90;;;;;;5030973;28;20270;-86
2023/01/14 07:13:26;;;;;;;7.27;2.40;;;4.30;99.90;;;;;;5014798;28;20252;-86
2023/01/14 07:15:51;;;;;;;9.90;2.60;;;4.40;99.90;;;;;;4998368;28;20195;-86
2023/01/14 07:18:18;;;;;;;8.17;2.40;;;4.40;99.90;;;;;;5016802;28;20163;-86
2023/01/14 07:20:44;;;;;;;9.23;2.90;;;4.50;99.90;;;;;;5017552;28;20172;-86
2023/01/14 07:23:10;;;;;;;6.23;3.33;;;4.50;99.90;;;;;;5002821;28;20206;-86
2023/01/14 07:25:36;;;;;;;7.53;3.43;;;4.50;99.90;;;;;;5049275;28;20195;-86
2023/01/14 07:28:04;;;;;;;8.03;3.93;;;4.50;99.90;;;;;;5021934;28;20204;-86
2023/01/14 07:30:30;;;;;;;8.77;3.83;;;4.50;99.90;;;;;;5005372;28;20185;-86
2023/01/14 07:32:59;;;;;;;7.87;3.87;;;4.60;99.90;;;;;;5014383;28;20204;-86
2023/01/14 07:35:26;;;;;;;9.93;4.63;;;4.60;99.90;;;;;;5029708;28;20314;-86
2023/01/14 07:37:57;;;;;;;12.30;4.43;;;4.70;99.90;;;;;;5014677;28;20178;-86
2023/01/14 07:40:23;;;;;;;9.07;3.10;;;4.70;99.90;;;;;;5021417;28;20260;-87
2023/01/14 07:42:57;;;;;;;9.87;2.50;;;4.80;99.90;;;;;;5013279;28;20664;-86
2023/01/14 07:45:25;;;;;;;7.00;2.40;;;4.80;99.90;;;;;;5013531;28;20187;-86
2023/01/14 07:47:50;;;;;;;9.87;2.70;;;4.90;99.90;;;;;;5004093;28;20190;-85
2023/01/14 07:50:18;;;;;;;8.03;2.33;;;4.90;99.90;;;;;;5022570;28;20190;-85
2023/01/14 07:52:50;;;;;;;8.30;2.27;;;4.90;99.90;;;;;;5028974;28;20210;-86
2023/01/14 07:55:16;;;;;;;8.80;1.97;;;4.90;99.90;;;;;;5013894;28;20309;-85
2023/01/14 07:57:42;;;;;;;13.60;5.47;;;4.90;99.90;;;;;;5008983;28;20332;-86
2023/01/14 08:00:09;;;;;;;20.93;14.27;;;5.00;99.90;;;;;;5017067;28;20178;-87
2023/01/14 08:02:37;;;;;;;14.07;6.47;;;5.00;99.90;;;;;;5012849;28;20223;-87
2023/01/14 08:05:07;;;;;;;8.50;3.73;;;5.10;99.90;;;;;;5012787;28;20183;-88
2023/01/14 08:07:39;;;;;;;10.67;3.63;;;5.10;99.90;;;;;;5017022;28;20213;-87
2023/01/14 08:10:09;;;;;;;11.73;3.93;;;5.20;99.90;;;;;;5013546;28;20166;-87
2023/01/14 08:12:36;;;;;;;10.13;4.27;;;5.20;99.90;;;;;;5012259;28;20284;-87
2023/01/14 08:15:04;;;;;;;9.03;3.80;;;5.30;99.90;;;;;;5028640;28;20229;-87
2023/01/14 08:17:30;;;;;;;8.40;3.90;;;5.40;99.90;;;;;;5028658;28;20181;-87
2023/01/14 08:19:58;;;;;;;11.23;3.40;;;5.50;99.90;;;;;;5028608;28;20209;-87
2023/01/14 08:22:24;;;;;;;7.97;3.50;;;5.60;99.90;;;;;;5013160;28;20205;-88
2023/01/14 08:24:53;;;;;;;7.80;2.70;;;5.60;99.90;;;;;;5028586;28;20185;-87
2023/01/14 08:27:20;;;;;;;9.30;2.40;;;5.70;99.90;;;;;;5028792;28;20208;-90
2023/01/14 08:29:46;;;;;;;6.77;2.73;;;5.80;99.90;;;;;;5012843;28;20193;-87
2023/01/14 08:32:15;;;;;;;9.50;2.70;;;5.90;99.90;;;;;;5028692;28;20208;-87
2023/01/14 08:34:41;;;;;;;9.40;2.57;;;6.00;99.90;;;;;;5013400;28;20286;-87
2023/01/14 08:37:07;;;;;;;6.50;2.53;;;6.00;99.90;;;;;;5023476;28;20265;-87
2023/01/14 08:39:33;;;;;;;9.23;2.50;;;6.10;99.90;;;;;;5027935;28;20186;-87
2023/01/14 08:41:59;;;;;;;5.10;1.53;;;6.10;99.90;;;;;;5011988;28;20183;-87
2023/01/14 08:44:25;;;;;;;4.77;1.73;;;6.20;99.90;;;;;;5029569;28;20767;-87
2023/01/14 08:46:50;;;;;;;7.50;1.70;;;6.20;99.90;;;;;;5019200;28;20189;-87
2023/01/14 08:49:16;;;;;;;4.00;1.60;;;6.30;99.90;;;;;;5028252;28;20198;-87
2023/01/14 08:51:42;;;;;;;4.33;1.63;;;6.40;99.90;;;;;;5039314;28;20591;-87
2023/01/14 08:54:09;;;;;;;8.43;2.47;;;6.40;99.90;;;;;;5016823;28;20226;-87
2023/01/14 08:56:35;;;;;;;4.03;1.47;;;6.50;99.90;;;;;;5047103;28;20681;-88
2023/01/14 08:59:02;;;;;;;3.67;1.70;;;6.50;99.90;;;;;;5033735;28;20175;-87
2023/01/14 09:01:29;;;;;;;6.13;2.00;;;6.50;99.90;;;;;;5012868;28;20185;-87
2023/01/14 09:04:00;;;;;;;6.33;2.27;;;6.60;99.90;;;;;;5028636;28;20202;-88
2023/01/14 09:06:27;;;;;;;6.33;2.73;;;6.60;99.90;;;;;;5004847;28;20186;-87
2023/01/14 09:17:16;;;;;;;5.73;1.70;;;6.80;99.90;;;;;;5013900;28;20217;-77
2023/01/14 09:19:54;;;;;;;4.13;1.53;;;6.80;99.90;;;;;;5032675;28;20170;-85
2023/01/14 09:22:29;;;;;;;3.77;2.17;;;6.80;99.90;;;;;;5007544;28;20207;-87
2023/01/14 09:24:55;;;;;;;5.97;2.00;;;6.90;99.90;;;;;;4992009;28;20191;-87
2023/01/14 09:27:23;;;;;;;6.13;2.60;;;6.90;99.90;;;;;;4993522;28;20321;-87
2023/01/14 09:29:49;;;;;;;3.47;1.97;;;6.90;99.90;;;;;;5010280;28;20249;-87
2023/01/14 09:32:20;;;;;;;7.07;2.10;;;6.90;99.90;;;;;;5017132;28;20198;-87
2023/01/14 09:34:48;;;;;;;4.40;2.40;;;7.00;99.90;;;;;;5008225;28;20207;-86
2023/01/14 09:37:19;;;;;;;6.63;2.63;;;7.00;99.90;;;;;;5003171;28;20179;-87
2023/01/14 09:39:48;;;;;;;4.10;2.03;;;7.10;99.90;;;;;;5009942;28;20190;-87
2023/01/14 09:42:34;;;;;;;4.13;2.53;;;7.10;99.90;;;;;;5010973;28;20207;-87
2023/01/14 09:45:33;;;;;;;6.30;3.43;;;7.10;99.90;;;;;;5025210;28;20193;-86
2023/01/14 09:48:14;;;;;;;14.63;8.70;;;7.20;99.90;;;;;;5009304;28;20176;-87
2023/01/14 09:50:46;;;;;;;15.07;6.60;;;7.30;99.90;;;;;;5024244;28;20179;-86
2023/01/14 09:53:36;;;;;;;10.03;4.63;;;7.40;99.90;;;;;;5026165;28;20203;-87
2023/01/14 09:56:16;;;;;;;6.87;2.60;;;7.50;99.90;;;;;;5025734;28;20608;-87
2023/01/14 09:58:58;;;;;;;5.60;2.10;;;7.60;99.90;;;;;;5027080;28;20189;-85
2023/01/14 10:02:06;;;;;;;5.07;2.67;;;7.70;99.90;;;;;;5028786;28;20178;-87
2023/01/14 10:04:54;;;;;;;3.73;1.90;;;7.70;99.90;;;;;;4986410;28;20221;-87
2023/01/14 10:07:22;;;;;;;5.57;1.77;;;7.80;99.90;;;;;;4977148;28;20202;-87
2023/01/14 10:09:57;;;;;;;4.60;1.90;;;7.90;99.90;;;;;;5021633;28;20175;-86
2023/01/14 10:12:45;;;;;;;6.87;3.13;;;7.90;99.90;;;;;;5014852;28;20245;-86
2023/01/14 10:15:14;;;;;;;4.77;2.77;;;7.90;99.90;;;;;;5030021;28;20199;-86
2023/01/14 10:17:44;;;;;;;5.70;2.53;;;8.00;99.90;;;;;;5016191;28;20238;-86
2023/01/14 10:20:20;;;;;;;4.80;2.73;;;8.00;99.90;;;;;;5011957;28;20175;-86
2023/01/14 10:23:11;;;;;;;6.33;2.27;;;8.10;99.90;;;;;;5021248;28;20199;-87
2023/01/14 10:25:41;;;;;;;7.03;3.07;;;8.10;99.90;;;;;;5014213;28;20179;-86
2023/01/14 10:28:13;;;;;;;4.73;2.53;;;8.10;99.90;;;;;;5029912;28;20282;-87
2023/01/14 10:30:42;;;;;;;5.60;2.20;;;8.20;99.90;;;;;;5011565;28;20179;-87
2023/01/14 10:33:15;;;;;;;5.63;3.53;;;8.20;99.90;;;;;;5030016;28;20211;-86
2023/01/14 10:35:52;;;;;;;5.77;3.10;;;8.30;99.90;;;;;;5027243;28;20261;-85
2023/01/14 10:38:24;;;;;;;5.13;3.03;;;8.30;99.90;;;;;;5012488;28;20171;-85
2023/01/14 10:40:53;;;;;;;5.23;2.47;;;8.40;99.90;;;;;;5032409;28;20181;-85
2023/01/14 10:43:42;;;;;;;4.27;1.80;;;8.40;99.90;;;;;;5007946;28;20258;-85
2023/01/14 10:46:21;;;;;;;4.90;2.57;;;8.40;99.90;;;;;;4994949;28;20190;-85
2023/01/14 10:48:50;;;;;;;4.37;1.77;;;8.40;99.90;;;;;;5036225;22;20317;-38
2023/01/14 10:51:37;;;;;;;3.93;1.50;;;8.50;99.90;;;;;;5011413;28;20290;-39
2023/01/14 10:54:09;;;;;;;3.77;2.00;;;8.50;99.90;;;;;;4994528;28;20234;-38
2023/01/14 10:57:06;;;;;;;4.57;2.17;;;8.50;99.90;;;;;;4994558;28;20203;-38
2023/01/14 11:02:38;;;;;;;4.63;2.33;;;8.60;99.90;;;;;;4993824;28;20231;-33
2023/01/14 11:05:06;;;;;;;4.80;1.70;;;8.60;99.90;;;;;;5004861;28;20195;-32
2023/01/14 11:07:37;;;;;;;4.43;1.90;;;8.60;99.90;;;;;;4994546;28;20187;-33
2023/01/14 11:10:18;;;;;;;2.80;1.77;;;8.60;99.90;;;;;;4977134;28;20211;-43
2023/01/14 11:12:44;;;;;;;4.10;1.60;;;8.60;99.90;;;;;;4994037;28;20180;-44
2023/01/14 11:15:31;;;;;;;3.80;1.90;;;8.60;99.90;;;;;;4994387;28;20214;-44
2023/01/14 11:18:20;;;;;;;1.97;1.57;;;8.70;99.90;;;;;;4977716;28;20192;-44
2023/01/14 11:21:16;;;;;;;2.50;1.50;;;8.70;99.90;;;;;;4994454;28;20204;-44
2023/01/14 11:23:59;;;;;;;2.87;1.80;;;8.70;99.90;;;;;;4995078;28;20172;-44
2023/01/14 11:26:37;;;;;;;4.93;1.70;;;8.70;99.90;;;;;;4992198;28;20551;-44
2023/01/14 11:29:11;;;;;;;2.00;1.47;;;8.70;99.90;;;;;;4979965;28;20234;-43
2023/01/14 11:31:38;;;;;;;7.63;2.70;;;8.70;99.90;;;;;;4974352;28;20223;-44
2023/01/14 11:34:13;;;;;;;7.80;3.73;;;8.70;99.90;;;;;;4988730;28;20176;-44
2023/01/14 11:36:38;;;;;;;14.43;5.53;;;8.70;99.90;;;;;;4979146;28;20255;-44
2023/01/14 11:39:05;;;;;;;8.47;2.07;;;8.70;99.90;;;;;;4982195;28;20212;-44
2023/01/14 11:41:39;;;;;;;3.37;1.43;;;8.70;99.90;;;;;;4966312;28;20251;-42
2023/01/14 11:44:21;;;;;;;5.17;2.20;;;8.70;99.90;;;;;;4990279;28;20184;-43
2023/01/14 11:47:09;;;;;;;4.13;2.00;;;8.70;99.90;;;;;;4981858;28;20191;-43
2023/01/14 11:49:35;;;;;;;4.23;1.83;;;8.70;99.90;;;;;;4957421;28;20192;-42
2023/01/14 11:52:03;;;;;;;4.50;2.40;;;8.70;99.90;;;;;;4976676;28;20188;-44
2023/01/14 11:54:40;;;;;;;2.23;1.60;;;8.70;99.90;;;;;;4960028;28;20230;-44
2023/01/14 11:57:16;;;;;;;3.37;1.63;;;8.70;99.90;;;;;;4992292;28;20191;-43
2023/01/14 11:59:43;;;;;;;4.87;2.10;;;8.70;99.90;;;;;;4981319;28;20194;-43
2023/01/14 12:02:21;;;;;;;4.60;2.90;;;8.70;99.90;;;;;;4982501;28;20214;-45
2023/01/14 12:04:51;;;;;;;3.67;2.10;;;8.70;99.90;;;;;;4980666;28;20276;-40
2023/01/14 12:07:24;;;;;;;4.60;1.50;;;8.70;99.90;;;;;;4995345;28;20171;-44
2023/01/14 12:10:19;;;;;;;5.57;1.70;;;8.70;99.90;;;;;;4998803;28;20188;-44
2023/01/14 12:18:27;;;;;;;5.07;2.90;;;8.80;99.90;;;;;;4999040;28;20186;-44
2023/01/14 12:20:55;;;;;;;5.60;2.30;;;8.80;99.90;;;;;;4983261;28;20231;-44
2023/01/14 12:23:25;;;;;;;5.50;3.30;;;8.80;99.90;;;;;;4968733;28;20338;-44
2023/01/14 12:25:53;;;;;;;5.30;3.30;;;8.80;99.90;;;;;;4983855;28;20190;-41
2023/01/14 12:28:35;;;;;;;4.20;2.43;;;8.80;99.90;;;;;;4999560;28;20269;-43
2023/01/14 12:31:27;;;;;;;9.00;2.40;;;8.80;99.90;;;;;;4996991;28;20286;-44
2023/01/14 12:34:30;;;;;;;4.27;2.40;;;8.80;99.90;;;;;;4997925;28;20233;-43
2023/01/14 12:37:19;;;;;;;5.07;2.47;;;8.70;99.90;;;;;;4983159;28;20210;-44
2023/01/14 12:45:45;;;;;;;2.80;1.90;;;8.70;99.90;;;;;;4989941;28;20283;-44
2023/01/14 12:48:18;;;;;;;4.03;2.70;;;8.80;99.90;;;;;;4992007;28;20191;-44
2023/01/14 12:50:49;;;;;;;4.83;2.07;;;8.80;99.90;;;;;;4991809;28;20278;-43
2023/01/14 12:53:29;;;;;;;3.87;2.00;;;8.80;99.90;;;;;;4992525;28;20199;-43
2023/01/14 12:55:59;;;;;;;2.90;1.70;;;8.80;99.90;;;;;;4973126;28;20196;-44
2023/01/14 12:58:32;;;;;;;3.63;1.90;;;8.80;99.90;;;;;;4972712;28;20200;-44
2023/01/14 13:01:02;;;;;;;4.33;1.90;;;8.80;99.90;;;;;;4996878;28;20295;-44
2023/01/14 13:03:57;;;;;;;4.50;1.80;;;8.80;99.90;;;;;;4984216;28;20168;-40
2023/01/14 13:06:37;;;;;;;5.03;2.03;;;8.90;99.90;;;;;;4971881;28;20192;-41
2023/01/14 13:09:14;;;;;;;5.43;2.57;;;8.90;99.90;;;;;;4983171;28;20207;-44
2023/01/14 13:11:44;;;;;;;5.57;2.20;;;8.90;99.90;;;;;;4972437;28;20199;-44
2023/01/14 13:14:38;;;;;;;4.80;2.00;;;9.00;99.90;;;;;;4974825;28;20183;-44
2023/01/14 13:17:32;;;;;;;4.47;2.00;;;9.00;99.90;;;;;;4975071;28;20250;-42
2023/01/14 13:20:00;;;;;;;4.43;2.07;;;9.00;99.90;;;;;;4960337;28;20203;-41
2023/01/14 13:22:43;;;;;;;3.73;1.60;;;9.10;99.90;;;;;;4991961;28;20319;-43
2023/01/14 13:25:44;;;;;;;5.63;2.33;;;9.10;99.90;;;;;;4991653;28;20263;-44
2023/01/14 13:28:10;;;;;;;5.10;2.00;;;9.10;99.90;;;;;;4990918;28;20712;-42
2023/01/14 13:31:04;;;;;;;5.60;2.03;;;9.20;99.90;;;;;;4979824;28;20207;-43
2023/01/14 13:33:37;;;;;;;5.00;2.60;;;9.30;99.90;;;;;;4971231;28;20187;-40
2023/01/14 13:36:06;;;;;;;4.67;1.90;;;9.40;99.90;;;;;;4972897;28;20337;-41
2023/01/14 13:38:33;;;;;;;4.30;1.70;;;9.50;99.90;;;;;;4955193;28;20275;-43
2023/01/14 13:41:08;;;;;;;5.00;1.70;;;9.50;99.90;;;;;;4970988;28;20204;-39
2023/01/14 13:43:49;;;;;;;2.87;1.80;;;9.50;99.90;;;;;;4990541;28;20211;-41
2023/01/14 13:46:28;;;;;;;2.93;1.67;;;9.50;99.90;;;;;;4990764;28;20175;-42
2023/01/14 13:48:57;;;;;;;2.40;1.43;;;9.50;99.90;;;;;;4990538;28;20192;-43
2023/01/14 13:51:42;;;;;;;1.60;1.10;;;9.50;99.90;;;;;;4994492;28;20220;-44
2023/01/14 13:54:16;;;;;;;2.80;1.13;;;9.50;99.90;;;;;;4993997;28;20262;-44
2023/01/14 13:56:47;;;;;;;4.83;1.80;;;9.50;99.90;;;;;;4977541;28;20206;-44
2023/01/14 13:59:31;;;;;;;3.63;1.43;;;9.50;99.90;;;;;;4977445;28;20181;-43